createdAt,value
2023-05-11T00:01:07.540Z,3.27
2023-05-11T00:03:38.384Z,3.43
2023-05-11T00:06:05.472Z,3.67
2023-05-11T00:08:34.484Z,3.27
2023-05-11T00:11:01.673Z,3.30
2023-05-11T00:13:28.901Z,3.30
2023-05-11T00:15:55.815Z,3.80
2023-05-11T00:18:22.768Z,2.93
2023-05-11T00:20:49.673Z,3.00
2023-05-11T00:23:19.022Z,3.07
2023-05-11T00:25:45.786Z,2.97
2023-05-11T00:28:14.791Z,3.30
2023-05-11T00:30:46.129Z,3.13
2023-05-11T00:33:15.259Z,3.30
2023-05-11T00:35:42.927Z,2.80
2023-05-11T00:38:10.061Z,3.43
2023-05-11T00:40:36.832Z,3.40
2023-05-11T00:43:06.199Z,2.93
2023-05-11T00:45:33.379Z,3.40
2023-05-11T00:48:02.635Z,3.30
2023-05-11T00:50:29.529Z,3.40
2023-05-11T00:52:58.801Z,3.23
2023-05-11T00:55:25.548Z,2.90
2023-05-11T00:57:52.305Z,3.17
2023-05-11T01:00:19.286Z,3.17
2023-05-11T01:02:46.369Z,3.10
2023-05-11T01:05:13.342Z,3.20
2023-05-11T01:08:13.136Z,3.13
2023-05-11T01:10:47.178Z,2.83
2023-05-11T01:13:16.737Z,2.93
2023-05-11T01:15:53.394Z,3.13
2023-05-11T01:18:44.332Z,2.60
2023-05-11T01:21:16.316Z,3.00
2023-05-11T01:24:05.168Z,3.00
2023-05-11T01:27:11.493Z,2.90
2023-05-11T01:30:16.404Z,3.03
2023-05-11T01:32:43.436Z,2.87
2023-05-11T01:35:20.516Z,2.60
2023-05-11T01:37:54.408Z,2.90
2023-05-11T01:40:26.090Z,3.50
2023-05-11T01:43:04.205Z,3.10
2023-05-11T01:45:33.178Z,3.20
2023-05-11T01:47:59.996Z,2.83
2023-05-11T01:50:26.854Z,3.00
2023-05-11T01:52:53.598Z,3.17
2023-05-11T01:55:21.989Z,3.27
2023-05-11T01:57:55.507Z,2.80
2023-05-11T02:00:22.401Z,3.27
2023-05-11T02:02:49.307Z,3.50
2023-05-11T02:05:19.632Z,3.03
2023-05-11T02:07:50.113Z,3.13
2023-05-11T02:10:17.600Z,3.43
2023-05-11T02:12:47.355Z,3.30
2023-05-11T02:15:14.143Z,2.97
2023-05-11T02:17:43.686Z,3.00
2023-05-11T02:20:10.667Z,2.77
2023-05-11T02:22:37.632Z,2.83
2023-05-11T02:25:04.836Z,2.90
2023-05-11T02:27:33.035Z,3.13
2023-05-11T02:30:01.990Z,2.90
2023-05-11T02:32:30.051Z,3.00
2023-05-11T02:35:11.630Z,3.30
2023-05-11T02:37:41.653Z,3.40
2023-05-11T02:40:19.653Z,3.33
2023-05-11T02:42:47.615Z,3.30
2023-05-11T02:45:16.883Z,3.27
2023-05-11T02:47:46.759Z,3.33
2023-05-11T02:50:16.241Z,3.40
2023-05-11T02:52:48.925Z,3.30
2023-05-11T02:55:17.050Z,3.23
2023-05-11T02:57:44.694Z,3.10
2023-05-11T03:00:14.191Z,3.00
2023-05-11T03:02:41.292Z,3.20
2023-05-11T03:05:10.335Z,3.13
2023-05-11T03:07:43.017Z,3.30
2023-05-11T03:10:12.648Z,3.50
2023-05-11T03:12:41.690Z,3.23
2023-05-11T03:15:12.251Z,3.03
2023-05-11T03:17:39.189Z,3.23
2023-05-11T03:20:09.544Z,3.93
2023-05-11T03:22:37.038Z,3.47
2023-05-11T03:25:04.126Z,3.07
2023-05-11T03:27:31.166Z,3.80
2023-05-11T03:29:57.956Z,3.50
2023-05-11T03:32:24.872Z,3.00
2023-05-11T03:34:54.140Z,3.47
2023-05-11T03:37:23.021Z,3.30
2023-05-11T03:39:52.438Z,3.47
2023-05-11T03:42:19.235Z,3.20
2023-05-11T03:44:48.993Z,3.10
2023-05-11T03:47:17.975Z,3.60
2023-05-11T03:49:46.970Z,3.80
2023-05-11T03:52:16.252Z,3.40
2023-05-11T03:54:46.067Z,3.30
2023-05-11T03:57:14.213Z,3.23
2023-05-11T03:59:41.263Z,3.57
2023-05-11T04:02:08.607Z,3.33
2023-05-11T04:04:35.590Z,3.50
2023-05-11T04:07:02.388Z,3.53
2023-05-11T04:09:29.197Z,3.40
2023-05-11T04:11:55.974Z,3.50
2023-05-11T04:14:22.755Z,3.40
2023-05-11T04:16:54.245Z,3.20
2023-05-11T04:19:21.019Z,3.57
2023-05-11T04:21:50.109Z,3.70
2023-05-11T04:24:16.841Z,3.13
2023-05-11T04:26:43.610Z,3.30
2023-05-11T04:29:12.630Z,3.13
2023-05-11T04:31:41.930Z,2.97
2023-05-11T04:34:08.716Z,2.87
2023-05-11T04:36:36.079Z,3.50
2023-05-11T04:39:04.429Z,3.00
2023-05-11T04:41:31.198Z,3.13
2023-05-11T04:44:00.115Z,3.30
2023-05-11T04:46:26.950Z,3.53
2023-05-11T04:48:55.946Z,3.37
2023-05-11T04:51:22.721Z,3.10
2023-05-11T04:53:49.549Z,3.23
2023-05-11T04:56:16.349Z,3.30
2023-05-11T04:58:45.704Z,3.30
2023-05-11T05:01:12.554Z,2.90
2023-05-11T05:03:39.312Z,3.53
2023-05-11T05:06:06.218Z,3.00
2023-05-11T05:08:32.998Z,3.40
2023-05-11T05:11:02.076Z,3.17
2023-05-11T05:13:28.869Z,3.30
2023-05-11T05:15:55.729Z,3.33
2023-05-11T05:18:24.608Z,3.03
2023-05-11T05:20:51.370Z,3.10
2023-05-11T05:23:18.116Z,3.30
2023-05-11T05:25:47.352Z,2.90
2023-05-11T05:28:16.341Z,3.13
2023-05-11T05:30:43.117Z,3.23
2023-05-11T05:33:12.216Z,3.13
2023-05-11T05:35:44.179Z,3.43
2023-05-11T05:38:13.114Z,3.27
2023-05-11T05:40:39.908Z,3.10
2023-05-11T05:43:06.855Z,3.10
2023-05-11T05:45:33.657Z,3.17
2023-05-11T05:48:00.814Z,3.30
2023-05-11T05:50:29.963Z,2.73
2023-05-11T05:52:59.065Z,2.83
2023-05-11T05:55:25.930Z,3.00
2023-05-11T05:57:55.100Z,3.00
2023-05-11T06:00:26.486Z,2.80
2023-05-11T06:02:53.405Z,3.10
2023-05-11T06:05:20.438Z,2.70
2023-05-11T06:07:57.988Z,2.57
2023-05-11T06:10:29.416Z,3.10
2023-05-11T06:12:56.333Z,2.63
2023-05-11T06:15:25.510Z,2.70
2023-05-11T06:17:52.360Z,3.03
2023-05-11T06:20:21.793Z,2.63
2023-05-11T06:22:51.071Z,2.67
2023-05-11T06:25:17.876Z,2.40
2023-05-11T06:27:44.624Z,2.50
2023-05-11T06:30:16.324Z,2.57
2023-05-11T06:32:43.375Z,2.83
2023-05-11T06:35:10.328Z,2.83
2023-05-11T06:37:37.059Z,2.50
2023-05-11T06:40:04.052Z,2.70
2023-05-11T06:42:35.249Z,3.10
2023-05-11T06:45:05.086Z,2.80
2023-05-11T06:47:34.062Z,2.53
2023-05-11T06:50:04.115Z,2.30
2023-05-11T06:52:33.365Z,2.50
2023-05-11T06:55:00.193Z,2.47
2023-05-11T06:57:27.015Z,2.40
2023-05-11T06:59:53.800Z,2.07
2023-05-11T07:02:23.064Z,2.57
2023-05-11T07:04:52.047Z,2.40
2023-05-11T07:07:18.866Z,2.50
2023-05-11T07:09:48.076Z,2.57
2023-05-11T07:12:14.878Z,2.00
2023-05-11T07:14:41.658Z,2.10
2023-05-11T07:17:10.903Z,2.00
2023-05-11T07:19:37.781Z,2.13
2023-05-11T07:22:07.148Z,1.93
2023-05-11T07:24:33.966Z,2.20
2023-05-11T07:27:02.084Z,2.20
2023-05-11T07:29:28.828Z,2.00
2023-05-11T07:31:58.100Z,1.83
2023-05-11T07:34:29.396Z,2.10
2023-05-11T07:36:58.404Z,2.27
2023-05-11T07:39:25.170Z,2.03
2023-05-11T07:41:51.963Z,1.90
2023-05-11T07:44:21.444Z,1.90
2023-05-11T07:46:48.327Z,1.70
2023-05-11T07:49:20.597Z,1.87
2023-05-11T07:51:52.738Z,2.37
2023-05-11T07:54:21.656Z,2.10
2023-05-11T07:56:48.647Z,2.00
2023-05-11T07:59:15.392Z,2.07
2023-05-11T08:01:42.618Z,2.70
2023-05-11T08:04:11.809Z,2.10
2023-05-11T08:06:38.601Z,2.03
2023-05-11T08:09:07.927Z,1.87
2023-05-11T08:11:37.048Z,1.90
2023-05-11T08:14:03.863Z,1.90
2023-05-11T08:16:30.645Z,1.93
2023-05-11T08:18:57.468Z,1.83
2023-05-11T08:21:24.299Z,1.80
2023-05-11T08:23:53.291Z,1.80
2023-05-11T08:26:22.281Z,1.77
2023-05-11T08:28:49.012Z,1.73
2023-05-11T08:31:16.126Z,1.77
2023-05-11T08:33:45.146Z,2.00
2023-05-11T08:36:15.503Z,2.13
2023-05-11T08:38:42.262Z,1.90
2023-05-11T08:41:12.026Z,2.10
2023-05-11T08:43:41.910Z,1.90
2023-05-11T08:46:09.102Z,1.87
2023-05-11T08:48:36.258Z,1.97
2023-05-11T08:51:04.392Z,1.97
2023-05-11T08:53:31.255Z,1.80
2023-05-11T08:56:01.328Z,1.80
2023-05-11T08:58:28.235Z,1.87
2023-05-11T09:00:57.850Z,2.47
2023-05-11T09:03:25.090Z,1.73
2023-05-11T09:05:51.826Z,1.90
2023-05-11T09:08:21.100Z,2.03
2023-05-11T09:10:49.087Z,2.20
2023-05-11T09:13:16.069Z,1.90
2023-05-11T09:15:45.119Z,2.40
2023-05-11T09:18:13.454Z,1.77
2023-05-11T09:20:42.815Z,1.93
2023-05-11T09:23:10.050Z,2.17
2023-05-11T09:25:36.797Z,2.07
2023-05-11T09:28:03.868Z,2.10
2023-05-11T09:30:32.824Z,2.40
2023-05-11T09:33:00.383Z,2.20
2023-05-11T09:35:35.314Z,1.60
2023-05-11T09:38:09.949Z,1.93
2023-05-11T09:40:37.961Z,2.30
2023-05-11T09:43:26.019Z,2.10
2023-05-11T09:45:56.315Z,2.67
2023-05-11T09:48:30.263Z,2.47
2023-05-11T09:51:04.745Z,2.33
2023-05-11T09:53:49.665Z,2.20
2023-05-11T09:56:16.582Z,1.90
2023-05-11T09:58:51.382Z,2.00
2023-05-11T10:01:30.428Z,1.90
2023-05-11T10:04:06.113Z,1.80
2023-05-11T10:06:52.932Z,1.90
2023-05-11T10:09:24.382Z,1.70
2023-05-11T10:11:51.352Z,1.70
2023-05-11T10:14:20.651Z,1.80
2023-05-11T10:16:49.460Z,2.20
2023-05-11T10:19:16.524Z,2.03
2023-05-11T10:21:45.950Z,1.90
2023-05-11T10:24:14.800Z,2.00
2023-05-11T10:26:44.012Z,2.00
2023-05-11T10:29:13.345Z,2.00
2023-05-11T10:31:40.196Z,1.90
2023-05-11T10:34:07.077Z,1.70
2023-05-11T10:36:33.954Z,1.90
2023-05-11T10:39:00.711Z,2.10
2023-05-11T10:41:46.364Z,1.90
2023-05-11T10:44:24.815Z,1.80
2023-05-11T10:47:17.775Z,2.07
2023-05-11T10:50:24.292Z,1.50
2023-05-11T10:53:05.857Z,1.50
2023-05-11T10:55:58.611Z,3.00
2023-05-11T10:58:57.645Z,2.00
2023-05-11T11:01:31.992Z,1.88
2023-05-11T11:04:20.560Z,1.90
2023-05-11T11:06:47.312Z,2.10
2023-05-11T11:09:15.631Z,1.73
2023-05-11T11:11:46.287Z,1.48
2023-05-11T11:14:14.672Z,1.60
2023-05-11T11:16:41.933Z,1.50
2023-05-11T11:19:30.827Z,1.95
2023-05-11T11:22:00.447Z,2.00
2023-05-11T11:24:39.445Z,1.73
2023-05-11T11:27:06.884Z,1.90
2023-05-11T11:29:40.779Z,1.65
2023-05-11T11:32:19.797Z,1.90
2023-05-11T11:34:47.243Z,1.67
2023-05-11T11:37:15.081Z,1.90
2023-05-11T11:39:41.863Z,1.60
2023-05-11T11:42:12.015Z,1.92
2023-05-11T11:44:39.126Z,1.90
2023-05-11T11:47:15.528Z,2.08
2023-05-11T11:49:49.326Z,1.83
2023-05-11T11:52:37.583Z,2.20
2023-05-11T11:55:05.213Z,1.77
2023-05-11T11:57:35.267Z,1.48
2023-05-11T12:00:09.044Z,2.08
2023-05-11T12:02:35.933Z,2.03
2023-05-11T12:05:18.405Z,1.80
2023-05-11T12:07:47.930Z,2.30
2023-05-11T12:10:15.772Z,1.83
2023-05-11T12:12:46.280Z,2.20
2023-05-11T12:15:29.665Z,1.90
2023-05-11T12:18:03.328Z,2.53
2023-05-11T12:20:30.322Z,2.00
2023-05-11T12:22:57.076Z,2.00
2023-05-11T12:25:26.401Z,2.00
2023-05-11T12:28:00.436Z,1.93
2023-05-11T12:30:31.235Z,1.80
2023-05-11T12:33:01.187Z,1.87
2023-05-11T12:35:29.554Z,2.10
2023-05-11T12:37:57.140Z,2.10
2023-05-11T12:40:23.983Z,2.00
2023-05-11T12:42:57.631Z,2.00
2023-05-11T12:45:25.038Z,2.30
2023-05-11T12:47:52.953Z,4.43
2023-05-11T12:50:22.384Z,2.07
2023-05-11T12:52:51.399Z,2.08
2023-05-11T12:55:32.772Z,1.90
2023-05-11T12:58:15.969Z,2.10
2023-05-11T13:00:54.758Z,2.13
2023-05-11T13:03:28.060Z,2.30
2023-05-11T13:06:05.059Z,2.10
2023-05-11T13:08:31.844Z,2.23
2023-05-11T13:11:25.767Z,2.63
2023-05-11T13:13:53.272Z,2.27
2023-05-11T13:16:32.738Z,2.30
2023-05-11T13:19:03.879Z,2.10
2023-05-11T13:21:32.779Z,2.38
2023-05-11T13:24:00.147Z,2.85
2023-05-11T13:26:28.795Z,2.28
2023-05-11T13:29:10.359Z,2.20
2023-05-11T13:31:54.363Z,1.73
2023-05-11T13:34:21.279Z,2.17
2023-05-11T13:36:50.362Z,1.60
2023-05-11T13:39:17.262Z,1.83
2023-05-11T13:41:44.054Z,2.03
2023-05-11T13:44:10.907Z,2.28
2023-05-11T13:46:37.850Z,2.40
2023-05-11T13:49:05.204Z,2.40
2023-05-11T13:51:34.871Z,2.63
2023-05-11T13:54:02.546Z,2.20
2023-05-11T13:56:29.565Z,2.45
2023-05-11T13:58:58.532Z,2.17
2023-05-11T14:01:27.571Z,1.83
2023-05-11T14:03:57.585Z,2.35
2023-05-11T14:06:24.814Z,2.15
2023-05-11T14:08:52.258Z,4.85
2023-05-11T14:11:19.010Z,2.03
2023-05-11T14:13:45.759Z,1.92
2023-05-11T14:16:12.556Z,1.98
2023-05-11T14:18:44.438Z,1.60
2023-05-11T14:21:13.623Z,2.15
2023-05-11T14:23:47.338Z,2.20
2023-05-11T14:26:20.686Z,1.98
2023-05-11T14:28:50.056Z,2.00
2023-05-11T14:31:17.385Z,1.90
2023-05-11T14:33:44.175Z,2.13
2023-05-11T14:36:13.446Z,2.28
2023-05-11T14:38:42.877Z,2.10
2023-05-11T14:41:09.849Z,2.15
2023-05-11T14:43:36.725Z,2.08
2023-05-11T14:46:04.265Z,2.10
2023-05-11T14:48:33.286Z,2.33
2023-05-11T14:51:00.192Z,2.22
2023-05-11T14:53:29.467Z,2.22
2023-05-11T14:55:56.677Z,2.60
2023-05-11T14:58:23.489Z,2.50
2023-05-11T15:00:52.414Z,2.53
2023-05-11T15:03:21.691Z,2.00
2023-05-11T15:05:48.457Z,2.22
2023-05-11T15:08:28.395Z,2.00
2023-05-11T15:10:59.186Z,2.22
2023-05-11T15:13:28.385Z,2.10
2023-05-11T15:15:55.242Z,1.85
2023-05-11T15:18:22.154Z,1.88
2023-05-11T15:20:48.942Z,2.05
2023-05-11T15:23:18.319Z,2.00
2023-05-11T15:25:45.440Z,2.20
2023-05-11T15:28:12.515Z,4.60
2023-05-11T15:30:41.400Z,2.20
2023-05-11T15:33:11.071Z,2.45
2023-05-11T15:35:38.133Z,2.10
2023-05-11T15:38:06.197Z,1.90
2023-05-11T15:40:35.595Z,2.10
2023-05-11T15:43:02.370Z,2.00
2023-05-11T15:45:29.649Z,1.70
2023-05-11T15:48:01.370Z,2.07
2023-05-11T15:50:28.178Z,2.00
2023-05-11T15:52:57.177Z,2.20
2023-05-11T15:55:26.451Z,2.10
2023-05-11T15:57:53.305Z,2.30
2023-05-11T16:00:20.382Z,2.50
2023-05-11T16:02:49.867Z,2.40
2023-05-11T16:05:16.787Z,2.20
2023-05-11T16:07:46.109Z,2.00
2023-05-11T16:10:15.345Z,2.17
2023-05-11T16:12:42.092Z,2.30
2023-05-11T16:15:09.177Z,2.80
2023-05-11T16:17:36.430Z,2.13
2023-05-11T16:20:04.591Z,2.17
2023-05-11T16:22:31.458Z,2.03
2023-05-11T16:24:58.167Z,2.30
2023-05-11T16:27:27.052Z,1.90
2023-05-11T16:29:53.841Z,2.10
2023-05-11T16:32:20.773Z,1.63
2023-05-11T16:34:47.563Z,2.20
2023-05-11T16:37:16.778Z,2.10
2023-05-11T16:39:43.686Z,2.10
2023-05-11T16:42:10.633Z,1.90
2023-05-11T16:44:37.367Z,2.17
2023-05-11T16:47:04.409Z,2.30
2023-05-11T16:49:31.259Z,1.80
2023-05-11T16:51:58.000Z,2.00
2023-05-11T16:54:26.331Z,2.17
2023-05-11T16:56:53.780Z,2.43
2023-05-11T16:59:20.895Z,2.37
2023-05-11T17:01:47.858Z,2.07
2023-05-11T17:04:17.345Z,2.27
2023-05-11T17:06:46.389Z,2.00
2023-05-11T17:09:13.445Z,2.07
2023-05-11T17:11:42.780Z,1.50
2023-05-11T17:14:11.125Z,1.90
2023-05-11T17:16:37.941Z,1.70
2023-05-11T17:19:09.530Z,2.27
2023-05-11T17:21:36.478Z,1.93
2023-05-11T17:24:05.407Z,1.80
2023-05-11T17:26:46.405Z,1.63
2023-05-11T17:29:15.990Z,2.27
2023-05-11T17:31:42.934Z,2.57
2023-05-11T17:34:10.246Z,2.10
2023-05-11T17:36:39.626Z,1.93
2023-05-11T17:39:06.412Z,2.07
2023-05-11T17:41:33.214Z,2.37
2023-05-11T17:44:00.057Z,1.90
2023-05-11T17:46:28.139Z,2.23
2023-05-11T17:48:55.305Z,1.90
2023-05-11T17:51:22.211Z,2.07
2023-05-11T17:53:52.070Z,2.30
2023-05-11T17:56:19.223Z,2.00
2023-05-11T17:58:49.430Z,2.00
2023-05-11T18:01:16.724Z,2.00
2023-05-11T18:03:46.817Z,2.07
2023-05-11T18:06:13.790Z,2.63
2023-05-11T18:08:40.588Z,1.90
2023-05-11T18:11:10.097Z,2.23
2023-05-11T18:13:36.962Z,2.23
2023-05-11T18:16:07.204Z,1.80
2023-05-11T18:18:34.439Z,2.10
2023-05-11T18:21:12.533Z,2.00
2023-05-11T18:23:39.288Z,2.30
2023-05-11T18:26:06.482Z,2.17
2023-05-11T18:28:33.282Z,2.50
2023-05-11T18:31:00.358Z,2.20
2023-05-11T18:33:27.327Z,2.47
2023-05-11T18:35:56.292Z,2.00
2023-05-11T18:38:27.743Z,2.40
2023-05-11T18:40:57.179Z,2.40
2023-05-11T18:43:23.962Z,2.20
2023-05-11T18:45:52.305Z,2.30
2023-05-11T18:48:20.395Z,3.10
2023-05-11T18:50:56.574Z,2.87
2023-05-11T18:53:23.890Z,2.63
2023-05-11T18:55:53.526Z,2.30
2023-05-11T18:58:23.664Z,2.80
2023-05-11T19:00:53.821Z,2.60
2023-05-11T19:03:20.927Z,2.97
2023-05-11T19:05:48.440Z,2.77
2023-05-11T19:08:15.260Z,2.83
2023-05-11T19:10:45.421Z,2.97
2023-05-11T19:13:14.818Z,2.90
2023-05-11T19:15:41.725Z,3.10
2023-05-11T19:18:08.579Z,2.80
2023-05-11T19:20:35.437Z,3.33
2023-05-11T19:23:02.311Z,3.60
2023-05-11T19:25:29.137Z,3.13
2023-05-11T19:27:58.164Z,3.80
2023-05-11T19:30:25.043Z,3.17
2023-05-11T19:32:51.878Z,3.30
2023-05-11T19:35:19.077Z,3.43
2023-05-11T19:37:48.421Z,3.43
2023-05-11T19:40:44.651Z,2.93
2023-05-11T19:43:12.920Z,3.23
2023-05-11T19:45:42.338Z,3.53
2023-05-11T19:48:09.250Z,3.63
2023-05-11T19:50:36.067Z,3.20
2023-05-11T19:53:02.820Z,2.87
2023-05-11T19:55:29.611Z,3.63
2023-05-11T19:57:56.402Z,2.97
2023-05-11T20:00:25.261Z,2.83
2023-05-11T20:02:55.216Z,3.20
2023-05-11T20:05:22.063Z,3.20
2023-05-11T20:07:48.861Z,3.37
2023-05-11T20:10:15.998Z,3.30
2023-05-11T20:12:47.519Z,3.50
2023-05-11T20:15:16.564Z,3.17
2023-05-11T20:17:43.556Z,3.13
2023-05-11T20:20:11.046Z,3.20
2023-05-11T20:22:37.993Z,3.40
2023-05-11T20:25:09.608Z,3.23
2023-05-11T20:27:41.895Z,3.77
2023-05-11T20:30:09.207Z,3.30
2023-05-11T20:32:37.344Z,3.60
2023-05-11T20:35:07.479Z,3.40
2023-05-11T20:37:34.250Z,3.80
2023-05-11T20:40:01.110Z,3.30
2023-05-11T20:42:27.907Z,3.13
2023-05-11T20:44:54.655Z,3.67
2023-05-11T20:47:21.971Z,3.90
2023-05-11T20:49:50.056Z,4.50
2023-05-11T20:52:20.347Z,3.80
2023-05-11T20:54:49.023Z,3.73
2023-05-11T20:57:15.881Z,3.83
2023-05-11T21:02:14.141Z,3.53
2023-05-11T21:04:45.912Z,3.60
2023-05-11T21:07:14.919Z,4.00
2023-05-11T21:09:44.809Z,4.53
2023-05-11T21:12:13.790Z,4.77
2023-05-11T21:14:42.782Z,4.07
2023-05-11T21:17:09.553Z,4.53
2023-05-11T21:19:36.324Z,4.13
2023-05-11T21:22:05.510Z,4.27
2023-05-11T21:24:32.738Z,3.90
2023-05-11T21:26:59.788Z,3.67
2023-05-11T21:29:26.734Z,3.90
2023-05-11T21:31:53.596Z,4.27
2023-05-11T21:34:20.345Z,4.50
2023-05-11T21:36:49.345Z,4.10
2023-05-11T21:39:16.120Z,4.47
2023-05-11T21:41:42.950Z,4.57
2023-05-11T21:44:09.725Z,4.13
2023-05-11T21:46:38.625Z,4.40
2023-05-11T21:49:05.409Z,4.50
2023-05-11T21:51:34.635Z,3.97
2023-05-11T21:54:01.407Z,4.03
2023-05-11T21:56:28.326Z,4.00
2023-05-11T21:58:55.123Z,4.03
2023-05-11T22:01:22.582Z,4.10
2023-05-11T22:03:49.568Z,4.00
2023-05-11T22:06:16.381Z,4.03
2023-05-11T22:08:43.127Z,4.10
2023-05-11T22:11:12.056Z,4.17
2023-05-11T22:13:41.119Z,4.10
2023-05-11T22:16:08.127Z,4.27
2023-05-11T22:18:34.954Z,3.83
2023-05-11T22:21:01.731Z,4.10
2023-05-11T22:23:28.524Z,3.83
2023-05-11T22:25:57.411Z,4.33
2023-05-11T22:28:24.166Z,4.40
2023-05-11T22:30:53.168Z,4.10
2023-05-11T22:33:22.171Z,3.97
2023-05-11T22:35:48.880Z,4.00
2023-05-11T22:38:15.685Z,3.80
2023-05-11T22:40:42.435Z,3.80
2023-05-11T22:43:11.776Z,3.73
2023-05-11T22:45:38.629Z,3.93
2023-05-11T22:48:06.022Z,4.30
2023-05-11T22:50:32.835Z,3.60
2023-05-11T22:53:02.092Z,3.93
2023-05-11T22:55:31.115Z,4.20
2023-05-11T22:57:57.863Z,4.13
2023-05-11T23:00:25.399Z,3.93
2023-05-11T23:02:52.510Z,4.00
2023-05-11T23:05:19.420Z,3.77
2023-05-11T23:07:46.166Z,4.17
2023-05-11T23:10:15.045Z,4.20
2023-05-11T23:12:41.790Z,3.60
2023-05-11T23:15:09.725Z,3.63
2023-05-11T23:17:36.526Z,3.87
2023-05-11T23:20:06.447Z,3.47
2023-05-11T23:22:33.173Z,3.87
2023-05-11T23:25:02.247Z,3.90
2023-05-11T23:27:33.625Z,3.57
2023-05-11T23:30:02.958Z,3.80
2023-05-11T23:32:29.958Z,3.73
2023-05-11T23:34:56.747Z,3.40
2023-05-11T23:37:25.946Z,4.23
2023-05-11T23:39:52.758Z,4.33
2023-05-11T23:42:19.581Z,3.87
2023-05-11T23:44:49.232Z,3.70
2023-05-11T23:47:16.085Z,3.53
2023-05-11T23:49:42.863Z,4.07
2023-05-11T23:52:09.648Z,3.90
2023-05-11T23:54:36.409Z,3.60
2023-05-11T23:57:03.199Z,3.27
2023-05-11T23:59:32.193Z,3.70
